Time;durP1;ratioP1;P1;durP2;ratioP2;P2;SDS_P1;SDS_P2;PMS_P1;PMS_P2;Temp;Humidity;BMP_temperature;BMP_pressure;BME280_temperature;BME280_humidity;BME280_pressure;Samples;Min_cycle;Max_cycle;Signal;HPM_P1;HPM_P2
2022/07/08 00:01:23;;;;;;;5.20;1.80;;;;;;;21.13;47.33;99911.63;4400421;32;32108;-76
2022/07/08 00:03:51;;;;;;;5.40;1.80;;;;;;;21.01;47.55;99919.38;4412853;32;33010;-77
2022/07/08 00:06:19;;;;;;;7.30;2.30;;;;;;;20.86;47.88;99910.91;4412818;32;34131;-76
2022/07/08 00:08:46;;;;;;;5.68;2.03;;;;;;;20.70;48.31;99916.44;4412361;32;32447;-76
2022/07/08 00:11:14;;;;;;;5.28;2.17;;;;;;;21.18;47.33;99908.84;4412996;32;32198;-76
2022/07/08 00:13:42;;;;;;;3.58;1.77;;;;;;;21.24;47.03;99907.78;4399958;32;33015;-77
2022/07/08 00:16:09;;;;;;;3.62;1.90;;;;;;;20.94;47.83;99916.81;4411118;32;32184;-77
2022/07/08 00:18:40;;;;;;;4.43;2.20;;;;;;;20.97;47.83;99907.91;4411334;32;33522;-76
2022/07/08 00:21:08;;;;;;;6.12;2.03;;;;;;;20.90;48.07;99909.25;4411363;32;33692;-77
2022/07/08 00:23:36;;;;;;;4.72;1.90;;;;;;;20.93;48.08;99911.50;4424055;32;35147;-76
2022/07/08 00:26:06;;;;;;;3.60;2.08;;;;;;;20.74;48.49;99913.12;4416245;32;34771;-76
2022/07/08 00:28:33;;;;;;;6.20;2.00;;;;;;;20.82;48.36;99920.94;4422635;32;33182;-76
2022/07/08 00:31:04;;;;;;;3.72;2.20;;;;;;;20.85;48.44;99923.19;4412229;32;32235;-76
2022/07/08 00:33:32;;;;;;;6.32;1.98;;;;;;;20.84;48.49;99921.50;4413217;32;34150;-76
2022/07/08 00:35:59;;;;;;;3.60;2.10;;;;;;;20.60;48.98;99913.59;4411973;32;33998;-76
2022/07/08 00:38:27;;;;;;;2.60;1.80;;;;;;;20.65;48.97;99908.03;4425459;32;34226;-76
2022/07/08 00:40:55;;;;;;;3.60;1.92;;;;;;;20.63;48.98;99907.47;4413263;32;34477;-77
2022/07/08 00:43:44;;;;;;;4.10;2.30;;;;;;;20.54;49.30;99903.50;4425302;32;35138;-76
2022/07/08 00:46:13;;;;;;;3.75;1.90;;;;;;;20.39;49.84;99907.03;4425341;32;33761;-76
2022/07/08 00:48:42;;;;;;;4.80;2.28;;;;;;;20.74;49.02;99905.59;4439242;32;33028;-76
2022/07/08 00:51:12;;;;;;;3.65;2.12;;;;;;;20.56;49.43;99906.88;4439316;32;33894;-76
2022/07/08 00:53:42;;;;;;;4.95;2.10;;;;;;;20.62;49.37;99908.56;4412664;32;35202;-76
2022/07/08 00:56:10;;;;;;;5.97;2.60;;;;;;;20.60;49.29;99904.38;4425483;32;33963;-76
2022/07/08 00:58:41;;;;;;;4.53;2.35;;;;;;;20.40;49.99;99899.50;4412946;32;32666;-76
2022/07/08 01:01:09;;;;;;;3.95;1.87;;;;;;;20.64;49.42;99899.94;4412587;32;33307;-76
2022/07/08 01:03:37;;;;;;;5.20;2.62;;;;;;;20.51;49.78;99903.22;4425268;32;35051;-76
2022/07/08 01:06:05;;;;;;;6.03;2.25;;;;;;;20.31;50.34;99898.28;4425301;32;34008;-76
2022/07/08 01:08:33;;;;;;;6.60;2.20;;;;;;;20.15;50.68;99905.69;4400046;32;31692;-77
2022/07/08 01:11:00;;;;;;;6.28;2.15;;;;;;;20.13;50.96;99899.56;4425179;32;34660;-76
2022/07/08 01:13:28;;;;;;;4.95;2.33;;;;;;;20.49;49.94;99899.84;4414110;32;34682;-76
2022/07/08 01:15:56;;;;;;;5.78;2.08;;;;;;;20.00;51.19;99906.44;4414670;32;33361;-75
2022/07/08 01:18:29;;;;;;;5.43;2.30;;;;;;;20.12;50.96;99900.69;4426254;32;34273;-75
2022/07/08 01:20:58;;;;;;;3.83;2.20;;;;;;;20.14;51.05;99897.62;4401389;32;33245;-76
2022/07/08 01:23:26;;;;;;;4.50;2.30;;;;;;;20.17;50.85;99885.91;4413959;32;35527;-76
2022/07/08 01:25:54;;;;;;;5.32;2.20;;;;;;;20.15;50.78;99902.91;4416857;32;34015;-76
2022/07/08 01:28:22;;;;;;;4.30;2.40;;;;;;;20.04;51.08;99903.97;4428321;32;33645;-75
2022/07/08 01:30:50;;;;;;;5.10;2.30;;;;;;;20.28;50.58;99898.81;4414348;32;33907;-76
2022/07/08 01:33:18;;;;;;;4.65;2.12;;;;;;;20.38;50.25;99888.63;4425523;32;34402;-76
2022/07/08 01:35:46;;;;;;;5.20;2.50;;;;;;;20.39;50.10;99895.88;4412268;32;32550;-75
2022/07/08 01:38:13;;;;;;;3.80;2.20;;;;;;;20.27;50.46;99894.34;4424883;32;33449;-76
2022/07/08 01:40:43;;;;;;;5.35;2.00;;;;;;;20.38;50.40;99888.63;4412121;32;33712;-76
2022/07/08 01:43:11;;;;;;;5.78;2.40;;;;;;;20.36;50.38;99882.44;4399652;32;34422;-76
2022/07/08 01:45:39;;;;;;;6.47;2.70;;;;;;;20.16;50.95;99882.28;4412184;32;33311;-77
2022/07/08 01:48:07;;;;;;;5.10;2.30;;;;;;;19.95;51.42;99889.69;4411805;32;33516;-76
2022/07/08 01:50:34;;;;;;;6.85;2.12;;;;;;;20.05;51.41;99884.19;4412273;32;33694;-76
2022/07/08 01:53:02;;;;;;;5.97;2.30;;;;;;;20.40;50.43;99891.16;4412078;32;34421;-76
2022/07/08 01:55:30;;;;;;;3.80;2.35;;;;;;;20.19;50.97;99887.34;4412142;32;33879;-76
2022/07/08 01:57:58;;;;;;;4.87;2.30;;;;;;;20.18;50.98;99887.59;4412469;32;33115;-76
2022/07/08 02:00:25;;;;;;;4.90;2.22;;;;;;;20.17;51.00;99891.50;4412184;32;33898;-76
2022/07/08 02:02:53;;;;;;;4.28;2.35;;;;;;;20.33;50.69;99890.50;4411508;32;33958;-76
2022/07/08 02:05:21;;;;;;;5.62;2.42;;;;;;;20.41;50.42;99887.25;4411760;32;33592;-76
2022/07/08 02:07:48;;;;;;;4.80;2.12;;;;;;;20.30;50.71;99894.66;4424519;32;33154;-76
2022/07/08 02:10:16;;;;;;;4.30;2.50;;;;;;;19.95;51.50;99900.81;4412179;32;34481;-76
2022/07/08 02:12:44;;;;;;;3.17;2.05;;;;;;;20.10;51.26;99896.47;4411797;32;34591;-76
2022/07/08 02:15:12;;;;;;;6.20;2.50;;;;;;;20.16;51.12;99901.81;4411594;32;33271;-76
2022/07/08 02:17:41;;;;;;;6.12;2.47;;;;;;;20.20;51.00;99896.53;4411702;32;32953;-76
2022/07/08 02:20:13;;;;;;;4.00;2.33;;;;;;;20.09;51.52;99901.22;4411756;32;31616;-76
2022/07/08 02:22:44;;;;;;;4.68;2.30;;;;;;;19.93;51.88;99900.25;4411892;32;33261;-76
2022/07/08 02:25:11;;;;;;;6.18;2.58;;;;;;;20.15;51.25;99902.09;4412084;32;34073;-76
2022/07/08 02:27:39;;;;;;;6.03;2.30;;;;;;;20.11;51.32;99901.78;4423921;32;33455;-76
2022/07/08 02:30:08;;;;;;;5.78;2.28;;;;;;;20.17;51.25;99902.63;4411542;32;32993;-77
2022/07/08 02:32:39;;;;;;;4.87;2.20;;;;;;;20.08;51.49;99905.09;4411349;32;34428;-76
2022/07/08 02:35:07;;;;;;;4.22;2.33;;;;;;;20.02;51.65;99911.75;4424148;32;34664;-76
2022/07/08 02:37:35;;;;;;;4.68;2.28;;;;;;;19.89;51.96;99913.03;4411379;32;31859;-76
2022/07/08 02:40:03;;;;;;;4.70;2.12;;;;;;;20.06;51.44;99915.69;4424081;32;34347;-76
2022/07/08 02:42:30;;;;;;;5.65;2.37;;;;;;;20.25;50.90;99916.94;4411837;32;34732;-73
2022/07/08 02:44:58;;;;;;;5.12;2.37;;;;;;;19.90;51.80;99916.66;4398714;32;32476;-77
2022/07/08 02:47:26;;;;;;;5.12;2.60;;;;;;;19.73;52.36;99911.19;4423962;32;34150;-77
2022/07/08 02:49:53;;;;;;;5.00;2.50;;;;;;;19.33;53.51;99919.94;4411414;32;33891;-77
2022/07/08 02:52:21;;;;;;;6.87;2.35;;;;;;;19.67;52.59;99915.03;4411718;32;34575;-78
2022/07/08 02:54:49;;;;;;;7.87;3.28;;;;;;;19.57;52.90;99924.13;4411181;32;33576;-77
2022/07/08 02:57:16;;;;;;;4.95;2.30;;;;;;;19.31;53.85;99922.97;4398570;32;32806;-78
2022/07/08 02:59:47;;;;;;;5.47;2.50;;;;;;;19.44;53.49;99920.91;4413677;32;33869;-77
2022/07/08 03:02:15;;;;;;;4.70;2.60;;;;;;;19.16;54.25;99917.22;4413490;32;34301;-77
2022/07/08 03:04:43;;;;;;;5.03;2.17;;;;;;;19.53;53.28;99925.75;4413237;32;33182;-78
2022/07/08 03:07:14;;;;;;;4.78;2.50;;;;;;;19.78;52.69;99916.81;4413388;32;31969;-78
2022/07/08 03:09:41;;;;;;;6.60;2.50;;;;;;;19.48;53.45;99920.13;4413719;32;34858;-78
2022/07/08 03:12:09;;;;;;;6.20;2.33;;;;;;;19.68;52.90;99906.41;4425974;32;34320;-78
2022/07/08 03:14:40;;;;;;;4.82;2.30;;;;;;;19.42;53.60;99912.81;4413590;32;33966;-78
2022/07/08 03:17:08;;;;;;;7.22;2.25;;;;;;;19.66;53.04;99911.41;4413321;32;31846;-78
2022/07/08 03:19:35;;;;;;;6.65;2.60;;;;;;;19.57;53.21;99912.13;4426065;32;33845;-78
2022/07/08 03:22:04;;;;;;;3.45;2.00;;;;;;;19.39;53.98;99922.53;4413497;32;34556;-78
2022/07/08 03:24:32;;;;;;;4.10;2.47;;;;;;;18.90;55.34;99923.56;4425815;32;33962;-78
2022/07/08 03:26:59;;;;;;;3.85;2.20;;;;;;;19.54;53.49;99923.78;4413565;32;33206;-78
2022/07/08 03:29:27;;;;;;;6.60;2.33;;;;;;;19.69;52.95;99923.97;4425824;32;33760;-78
2022/07/08 03:31:57;;;;;;;3.90;2.20;;;;;;;19.34;53.75;99922.47;4413515;32;34689;-78
2022/07/08 03:34:24;;;;;;;5.75;2.45;;;;;;;19.42;53.43;99924.78;4426261;32;34784;-77
2022/07/08 03:36:52;;;;;;;4.05;2.20;;;;;;;19.41;53.57;99922.25;4413260;32;31956;-77
2022/07/08 03:39:20;;;;;;;4.00;2.35;;;;;;;19.02;54.78;99925.13;4413285;32;33703;-77
2022/07/08 03:41:52;;;;;;;3.95;2.35;;;;;;;19.34;53.95;99932.75;4413017;32;33648;-78
2022/07/08 03:44:20;;;;;;;6.03;2.35;;;;;;;19.63;53.21;99922.22;4413638;32;33902;-78
2022/07/08 03:46:47;;;;;;;5.22;2.45;;;;;;;19.76;52.88;99919.03;4413023;32;34059;-78
2022/07/08 03:49:18;;;;;;;4.53;2.40;;;;;;;19.54;53.19;99924.63;4413292;32;34575;-78
2022/07/08 03:51:46;;;;;;;3.25;1.98;;;;;;;19.46;53.60;99918.69;4425772;32;34476;-78
2022/07/08 03:54:13;;;;;;;6.05;2.45;;;;;;;19.23;54.21;99931.78;4413111;32;34474;-78
2022/07/08 03:56:41;;;;;;;3.62;2.30;;;;;;;19.32;54.17;99929.38;4413012;32;31989;-78
2022/07/08 03:59:09;;;;;;;3.83;2.05;;;;;;;19.63;53.31;99930.56;4413149;32;33644;-77
2022/07/08 04:01:36;;;;;;;6.68;2.65;;;;;;;19.39;53.76;99925.31;4413188;32;33783;-78
2022/07/08 04:04:04;;;;;;;3.72;2.25;;;;;;;19.40;53.85;99940.91;4396894;32;120059;-80
2022/07/08 04:06:32;;;;;;;3.85;2.17;;;;;;;19.44;53.69;99929.25;4413124;32;33285;-80
2022/07/08 04:09:00;;;;;;;4.37;2.30;;;;;;;19.00;55.09;99937.59;4413091;32;33648;-80
2022/07/08 04:11:27;;;;;;;4.37;2.45;;;;;;;19.23;54.67;99944.84;4413136;32;34326;-80
2022/07/08 04:13:57;;;;;;;3.00;1.90;;;;;;;19.23;54.66;99944.84;4425746;32;34746;-80
2022/07/08 04:16:25;;;;;;;4.50;2.15;;;;;;;19.44;54.17;99944.00;4413289;32;33393;-80
2022/07/08 04:18:53;;;;;;;5.22;2.33;;;;;;;19.44;54.01;99937.59;4412978;32;34638;-80
2022/07/08 04:21:21;;;;;;;5.18;2.50;;;;;;;19.80;53.36;99945.25;4413090;32;34778;-79
2022/07/08 04:23:53;;;;;;;3.58;2.05;;;;;;;19.83;52.99;99949.44;4412861;32;33039;-80
2022/07/08 04:26:21;;;;;;;3.50;2.20;;;;;;;20.00;52.44;99948.22;4425798;32;33394;-80
2022/07/08 04:28:48;;;;;;;4.25;2.30;;;;;;;19.69;53.35;99944.28;4412683;32;33575;-80
2022/07/08 04:31:16;;;;;;;4.93;2.53;;;;;;;19.71;53.26;99944.03;4413010;32;34974;-80
2022/07/08 04:33:44;;;;;;;4.43;2.60;;;;;;;19.29;54.50;99943.81;4412865;32;32233;-80
2022/07/08 04:36:11;;;;;;;4.78;2.30;;;;;;;19.49;54.04;99938.50;4439309;32;33338;-80
2022/07/08 04:38:41;;;;;;;5.87;2.30;;;;;;;19.69;53.56;99949.03;4413039;32;34610;-80
2022/07/08 04:41:09;;;;;;;4.62;2.45;;;;;;;19.52;54.04;99951.06;4413208;32;35345;-80
2022/07/08 04:43:36;;;;;;;3.67;2.40;;;;;;;19.53;54.30;99950.78;4412847;32;33937;-80
2022/07/08 04:46:04;;;;;;;4.75;2.72;;;;;;;19.65;53.76;99957.06;4412919;32;33596;-80
2022/07/08 04:48:32;;;;;;;5.20;3.00;;;;;;;19.59;53.94;99946.13;4412919;32;33000;-80
2022/07/08 04:51:00;;;;;;;4.35;2.40;;;;;;;20.01;52.71;99944.34;4412714;32;35283;-80
2022/07/08 04:53:30;;;;;;;3.70;2.15;;;;;;;20.02;52.61;99954.38;4412852;32;33888;-79
2022/07/08 04:55:57;;;;;;;4.53;2.70;;;;;;;20.03;52.78;99958.00;4425455;32;33402;-80
2022/07/08 04:58:25;;;;;;;6.37;2.65;;;;;;;19.86;53.32;99952.53;4400156;32;32387;-80
2022/07/08 05:00:53;;;;;;;6.15;2.83;;;;;;;19.72;53.63;99968.00;4412754;32;33008;-80
2022/07/08 05:03:22;;;;;;;5.62;2.53;;;;;;;19.87;53.32;99954.22;4412851;32;33957;-81
2022/07/08 05:05:51;;;;;;;5.03;2.53;;;;;;;20.10;52.87;99952.22;4412785;32;32946;-80
2022/07/08 05:08:19;;;;;;;3.80;2.40;;;;;;;20.06;53.02;99961.09;4412697;32;33667;-80
2022/07/08 05:10:48;;;;;;;5.00;2.58;;;;;;;20.23;52.62;99962.87;4412948;32;35170;-80
2022/07/08 05:13:16;;;;;;;5.25;2.75;;;;;;;20.45;51.94;99969.25;4412431;32;33315;-80
2022/07/08 05:15:46;;;;;;;7.07;3.08;;;;;;;19.96;53.04;99971.31;4412749;32;33080;-80
2022/07/08 05:18:14;;;;;;;4.85;2.60;;;;;;;20.20;52.59;99980.16;4399993;32;33705;-81
2022/07/08 05:20:42;;;;;;;5.57;2.90;;;;;;;20.16;52.67;99963.09;4412901;32;35208;-80
2022/07/08 05:23:09;;;;;;;4.82;2.62;;;;;;;20.06;52.94;99972.25;4415187;32;31552;-80
2022/07/08 05:25:37;;;;;;;4.28;2.72;;;;;;;20.09;52.73;99976.44;4428716;32;34145;-80
2022/07/08 05:28:05;;;;;;;6.70;2.78;;;;;;;19.88;53.30;99980.97;4403570;32;33763;-81
2022/07/08 05:30:35;;;;;;;5.40;2.92;;;;;;;19.35;54.85;99979.81;4415986;32;34634;-80
2022/07/08 05:33:03;;;;;;;5.18;2.78;;;;;;;19.79;53.80;99985.34;4412826;32;34794;-80
2022/07/08 05:35:30;;;;;;;4.95;2.62;;;;;;;19.94;53.19;99990.22;4412720;32;33572;-80
2022/07/08 05:37:58;;;;;;;6.32;2.67;;;;;;;20.08;52.79;99990.66;4412588;32;33109;-80
2022/07/08 05:40:27;;;;;;;6.53;3.50;;;;;;;20.41;52.10;99993.19;4412396;32;34468;-80
2022/07/08 05:42:54;;;;;;;4.90;2.50;;;;;;;20.47;51.88;99994.91;4425083;32;33912;-80
2022/07/08 05:45:22;;;;;;;7.55;2.70;;;;;;;20.57;52.47;100002.53;4399867;32;31721;-80
2022/07/08 05:47:50;;;;;;;5.53;3.08;;;;;;;20.69;52.70;100001.22;4412264;32;33631;-80
2022/07/08 05:50:20;;;;;;;9.75;3.55;;;;;;;21.10;51.36;99995.88;4424835;32;34701;-80
2022/07/08 05:52:48;;;;;;;5.40;2.70;;;;;;;21.12;51.24;100001.19;4412528;32;34578;-80
2022/07/08 05:55:18;;;;;;;6.10;3.33;;;;;;;21.02;50.70;100005.59;4412193;32;33925;-81
2022/07/08 05:57:45;;;;;;;4.62;2.75;;;;;;;21.13;50.61;100009.31;4424584;32;34154;-80
2022/07/08 06:04:14;;;;;;;5.82;2.60;;;;;;;21.09;50.81;100005.38;4424452;32;33466;-80
2022/07/08 06:06:42;;;;;;;4.18;2.60;;;;;;;20.81;51.37;100014.09;4411740;32;34068;-77
2022/07/08 06:09:11;;;;;;;5.75;2.75;;;;;;;21.15;50.66;100007.06;4423988;32;33838;-75
2022/07/08 06:11:39;;;;;;;5.25;2.47;;;;;;;21.21;52.11;100008.81;4438058;32;34288;-75
2022/07/08 06:14:06;;;;;;;4.40;2.30;;;;;;;21.56;50.71;100004.50;4424164;32;33834;-75
2022/07/08 06:16:34;;;;;;;5.20;2.67;;;;;;;21.39;49.79;100010.31;4424481;32;33237;-77
2022/07/08 06:19:02;;;;;;;7.32;2.58;;;;;;;21.47;49.70;100001.38;4424425;32;33767;-77
2022/07/08 06:21:32;;;;;;;5.30;2.55;;;;;;;21.58;49.33;100010.63;4424505;32;34222;-77
2022/07/08 06:24:00;;;;;;;6.12;2.90;;;;;;;21.80;49.23;100011.28;4424281;32;34022;-77
2022/07/08 06:26:30;;;;;;;4.62;2.67;;;;;;;21.76;49.17;100012.94;4438006;32;34383;-77
2022/07/08 06:32:49;;;;;;;4.50;2.47;;;;;;;22.19;47.65;100014.44;4423895;32;32544;-77
2022/07/08 06:35:17;;;;;;;6.05;2.70;;;;;;;21.89;47.98;100009.63;4413135;32;33332;-77
2022/07/08 06:37:44;;;;;;;5.45;2.40;;;;;;;22.07;47.96;100004.66;4426347;32;33317;-77
2022/07/08 06:40:13;;;;;;;3.47;2.00;;;;;;;22.14;46.99;100010.81;4413675;32;33697;-77
2022/07/08 06:42:40;;;;;;;4.15;2.30;;;;;;;22.30;46.96;100012.50;4426278;32;34492;-77
2022/07/08 06:45:10;;;;;;;4.78;2.28;;;;;;;22.56;46.51;100010.56;4426304;32;34422;-78
2022/07/08 06:47:41;;;;;;;6.93;2.20;;;;;;;22.73;46.19;99997.12;4425954;32;33156;-77
2022/07/08 06:50:09;;;;;;;4.12;2.10;;;;;;;22.30;47.26;100004.13;4426169;32;34157;-77
2022/07/08 06:52:37;;;;;;;4.95;2.12;;;;;;;22.53;46.76;100009.16;4440035;32;34497;-77
2022/07/08 06:55:07;;;;;;;3.62;2.30;;;;;;;22.78;46.01;100010.25;4426167;32;34010;-77
2022/07/08 06:57:36;;;;;;;12.73;2.65;;;;;;;23.03;45.22;100006.59;4410361;32;32289;-77
2022/07/08 07:00:05;;;;;;;7.03;2.72;;;;;;;23.02;45.96;100005.75;4423179;32;32371;-77
2022/07/08 07:02:50;;;;;;;7.63;2.90;;;;;;;23.41;45.33;100003.09;4412781;32;33336;-77
2022/07/08 07:05:19;;;;;;;5.55;2.22;;;;;;;23.43;43.95;99994.41;4423366;32;34098;-77
2022/07/08 07:07:47;;;;;;;4.50;2.35;;;;;;;23.65;43.96;99997.72;4410638;32;33009;-77
2022/07/08 07:10:14;;;;;;;4.72;2.40;;;;;;;23.25;44.22;99999.53;4410882;32;34494;-78
2022/07/08 07:12:42;;;;;;;4.85;2.58;;;;;;;23.49;44.10;100004.47;4410538;32;32525;-77
2022/07/08 07:15:10;;;;;;;3.62;2.12;;;;;;;23.76;44.01;99996.53;4397782;32;32674;-77
2022/07/08 07:17:40;;;;;;;5.62;2.20;;;;;;;23.98;43.65;100008.19;4424648;32;33357;-76
2022/07/08 07:20:09;;;;;;;4.53;2.15;;;;;;;23.53;44.13;100006.44;4423560;32;33999;-76
2022/07/08 07:22:36;;;;;;;4.07;2.37;;;;;;;23.70;44.00;100000.50;4423479;32;34469;-76
2022/07/08 07:25:05;;;;;;;4.97;2.62;;;;;;;24.12;42.90;100010.31;4410929;32;35009;-76
2022/07/08 07:27:39;;;;;;;6.40;2.60;;;;;;;24.23;42.82;100003.53;4411041;32;33811;-77
2022/07/08 07:30:08;;;;;;;3.80;2.20;;;;;;;24.31;42.68;100005.75;4423307;32;33719;-76
2022/07/08 07:32:36;;;;;;;5.87;2.40;;;;;;;24.42;42.83;100004.53;4423317;32;34372;-80
2022/07/08 07:35:04;;;;;;;4.22;2.12;;;;;;;24.60;43.37;100008.59;4410291;32;32379;-79
2022/07/08 07:37:37;;;;;;;5.78;2.50;;;;;;;24.77;43.43;100014.59;4410706;32;33093;-79
2022/07/08 07:40:06;;;;;;;7.32;2.33;;;;;;;24.76;41.51;100007.31;4423246;32;33558;-79
2022/07/08 07:42:37;;;;;;;4.70;2.30;;;;;;;24.82;41.39;100010.91;4410724;32;35116;-78
2022/07/08 07:45:06;;;;;;;7.75;2.55;;;;;;;24.66;41.62;100009.41;4410373;32;33310;-80
2022/07/08 07:47:34;;;;;;;4.65;2.30;;;;;;;24.92;41.36;100017.25;4423647;32;34040;-80
2022/07/08 07:50:05;;;;;;;6.22;2.50;;;;;;;25.07;40.86;100013.50;4398690;32;33442;-79
2022/07/08 07:52:33;;;;;;;3.78;2.25;;;;;;;25.19;40.63;100002.69;4410332;32;34339;-79
2022/07/08 07:55:01;;;;;;;6.53;2.53;;;;;;;25.34;39.94;100006.47;4397924;32;31893;-79
2022/07/08 07:57:34;;;;;;;3.42;1.80;;;;;;;25.33;40.02;100007.59;4411372;32;34007;-80
2022/07/08 08:00:03;;;;;;;5.45;2.33;;;;;;;25.37;39.48;99995.44;4398227;32;34479;-79
2022/07/08 08:02:40;;;;;;;4.43;2.20;;;;;;;25.52;39.63;100000.03;4411156;32;35616;-80
2022/07/08 08:05:09;;;;;;;4.57;2.30;;;;;;;25.24;39.67;99994.22;4410720;32;33944;-76
2022/07/08 08:07:38;;;;;;;5.68;2.20;;;;;;;25.50;39.29;100010.72;4408121;32;32843;-77
2022/07/08 08:10:25;;;;;;;7.32;2.35;;;;;;;25.69;40.02;100000.41;4439576;32;33700;-76
2022/07/08 08:13:16;;;;;;;5.37;2.20;;;;;;;25.94;40.48;100004.84;4426179;32;34544;-76
2022/07/08 08:16:08;;;;;;;7.05;2.33;;;;;;;26.26;38.63;100002.09;4426929;32;33859;-75
2022/07/08 08:19:05;;;;;;;4.15;2.35;;;;;;;26.33;37.50;100003.72;4414258;32;33241;-76
2022/07/08 08:22:04;;;;;;;6.32;2.50;;;;;;;26.40;39.73;100010.63;4439434;32;33887;-76
2022/07/08 08:24:59;;;;;;;7.50;2.30;;;;;;;26.38;37.82;100009.25;4425532;32;34037;-75
2022/07/08 08:27:56;;;;;;;4.72;1.95;;;;;;;26.41;37.59;100012.31;4427063;32;34680;-75
2022/07/08 08:30:43;;;;;;;4.87;1.98;;;;;;;26.42;36.77;100019.59;4439475;32;33058;-75
2022/07/08 08:33:33;;;;;;;4.10;2.40;;;;;;;26.74;37.59;100013.13;4439359;32;34656;-76
2022/07/08 08:36:19;;;;;;;8.18;2.40;;;;;;;26.87;36.29;100014.31;4425537;32;34031;-76
2022/07/08 08:39:05;;;;;;;4.18;2.20;;;;;;;26.60;35.70;100008.62;4439573;32;33813;-75
2022/07/08 08:41:52;;;;;;;3.62;2.30;;;;;;;26.62;34.80;100009.16;4439402;32;33069;-76
2022/07/08 08:44:42;;;;;;;5.12;1.98;;;;;;;26.78;35.52;99996.47;4426181;32;33751;-76
2022/07/08 08:47:36;;;;;;;5.12;2.25;;;;;;;26.94;34.79;100003.50;4413471;32;33959;-76
2022/07/08 08:53:37;;;;;;;6.30;2.60;;;;;;;26.88;36.02;100010.34;4439381;32;34282;-76
2022/07/08 08:56:24;;;;;;;8.02;2.33;;;;;;;26.97;36.12;100013.34;4425764;32;33705;-77
2022/07/08 08:59:17;;;;;;;5.72;2.17;;;;;;;26.76;36.03;100010.00;4414767;32;34724;-77
2022/07/08 09:02:10;;;;;;;3.40;2.10;;;;;;;26.88;35.28;100016.81;4427518;32;35014;-77
2022/07/08 09:05:04;;;;;;;4.97;2.15;;;;;;;26.90;34.96;100017.34;4439640;32;34396;-74
2022/07/08 09:07:50;;;;;;;3.50;2.20;;;;;;;26.77;35.37;100014.50;4426291;32;34171;-75
2022/07/08 09:10:34;;;;;;;4.57;2.42;;;;;;;26.70;35.15;100011.25;4439445;32;35187;-75
2022/07/08 09:13:30;;;;;;;4.62;2.50;;;;;;;26.82;36.05;100015.25;4426469;32;34572;-76
2022/07/08 09:16:26;;;;;;;4.70;2.30;;;;;;;26.98;35.15;100007.38;4427864;32;33362;-76
2022/07/08 09:19:25;;;;;;;6.53;2.67;;;;;;;27.29;34.97;100007.66;4411423;32;32868;-75
2022/07/08 09:22:17;;;;;;;9.57;2.67;;;;;;;27.66;35.16;100011.41;4439026;32;34231;-75
2022/07/08 09:25:09;;;;;;;5.43;2.53;;;;;;;27.77;34.30;100010.88;4423946;32;34646;-75
2022/07/08 09:28:01;;;;;;;7.25;3.05;;;;;;;27.84;34.81;100011.28;4413797;32;33809;-75
2022/07/08 09:30:52;;;;;;;9.30;2.58;;;;;;;27.80;33.57;100006.59;4426560;32;33622;-76
2022/07/08 09:33:47;;;;;;;3.65;2.30;;;;;;;27.78;34.05;100009.72;4425960;32;35248;-76
2022/07/08 09:37:00;;;;;;;6.30;1.98;;;;;;;27.71;33.19;100017.78;4427461;32;34240;-76
2022/07/08 09:39:48;;;;;;;4.55;2.17;;;;;;;27.77;33.19;100010.06;4413099;32;33519;-76
2022/07/08 09:42:59;;;;;;;4.37;2.40;;;;;;;28.08;33.48;100010.19;4426294;32;34512;-76
2022/07/08 09:46:05;;;;;;;;;;;;;;;27.86;33.55;100016.63;4438899;32;34599;-76
2022/07/08 09:48:55;;;;;;;6.30;2.58;;;;;;;27.54;33.96;100014.72;4426700;32;33342;-76
2022/07/08 09:51:40;;;;;;;5.28;2.10;;;;;;;27.63;33.69;100021.34;4425847;32;33482;-77
2022/07/08 09:54:26;;;;;;;4.75;2.20;;;;;;;27.53;33.18;100013.06;4425922;32;33425;-77
2022/07/08 09:57:20;;;;;;;4.30;2.20;;;;;;;27.47;33.72;100015.16;4426022;32;35202;-76
2022/07/08 10:00:18;;;;;;;5.70;2.10;;;;;;;27.68;33.41;100009.13;4438731;32;34122;-76
2022/07/08 10:03:06;;;;;;;8.18;2.75;;;;;;;27.62;33.82;100021.66;4438963;32;33326;-74
2022/07/08 10:05:40;;;;;;;8.95;2.40;;;;;;;27.67;34.08;100019.56;4424844;32;33775;-75
2022/07/08 10:08:09;;;;;;;6.72;2.30;;;;;;;27.58;34.46;100027.06;4439855;32;34443;-74
2022/07/08 10:10:42;;;;;;;6.35;2.28;;;;;;;27.55;33.82;100014.41;4427370;32;33991;-74
2022/07/08 10:13:10;;;;;;;4.53;2.15;;;;;;;27.23;33.74;100020.16;4427144;32;33339;-74
2022/07/08 10:15:38;;;;;;;6.37;2.40;;;;;;;26.89;33.94;100028.94;4426863;32;33744;-75
2022/07/08 10:18:08;;;;;;;4.15;2.40;;;;;;;27.02;34.36;100022.53;4440701;32;34283;-75
2022/07/08 10:20:38;;;;;;;4.32;2.30;;;;;;;27.06;34.82;100019.94;4426683;32;34648;-74
2022/07/08 10:23:09;;;;;;;4.47;2.30;;;;;;;27.00;34.39;100022.00;4426674;32;33959;-77
2022/07/08 10:25:37;;;;;;;5.35;2.47;;;;;;;27.23;34.40;100020.16;4414880;32;33668;-75
2022/07/08 10:28:06;;;;;;;3.55;2.00;;;;;;;27.22;33.95;100018.50;4426384;32;34672;-76
2022/07/08 10:30:51;;;;;;;3.25;1.83;;;;;;;27.28;34.04;100030.50;4426280;32;34661;-76
2022/07/08 10:33:23;;;;;;;6.15;2.30;;;;;;;27.32;33.35;100028.72;4440124;32;33339;-77
2022/07/08 10:36:08;;;;;;;4.78;2.20;;;;;;;27.43;33.37;100031.00;4426355;32;33396;-77
2022/07/08 10:38:37;;;;;;;5.55;1.98;;;;;;;27.51;34.13;100029.44;4414076;32;35357;-77
2022/07/08 10:41:13;;;;;;;4.78;2.20;;;;;;;27.90;33.34;100028.94;4426259;32;34674;-78
2022/07/08 10:43:50;;;;;;;7.07;2.30;;;;;;;28.04;32.56;100024.09;4424447;32;33701;-76
2022/07/08 10:46:20;;;;;;;5.15;2.20;;;;;;;27.80;31.97;100024.38;4417236;32;31969;-77
2022/07/08 10:48:59;;;;;;;4.25;2.45;;;;;;;27.84;31.49;100024.56;4410457;32;34334;-77
2022/07/08 10:51:29;;;;;;;3.83;1.85;;;;;;;28.00;32.07;100023.03;4410421;32;34528;-77
2022/07/08 10:54:09;;;;;;;4.32;1.80;;;;;;;27.85;31.49;100027.06;4424580;32;33420;-78
2022/07/08 10:56:53;;;;;;;2.80;1.85;;;;;;;27.77;30.73;100035.44;4410728;32;33965;-77
2022/07/08 10:59:31;;;;;;;3.67;2.10;;;;;;;28.00;30.46;100030.69;4398074;32;34381;-77
2022/07/08 11:02:05;;;;;;;3.50;1.90;;;;;;;28.16;31.25;100026.38;4398243;32;34094;-77
2022/07/08 11:04:33;;;;;;;3.47;1.80;;;;;;;28.30;31.22;100032.00;4410906;32;33455;-78
2022/07/08 11:07:37;;;;;;;6.28;1.98;;;;;;;28.20;31.69;100038.69;4410515;32;32153;-78
2022/07/08 11:10:22;;;;;;;4.37;1.90;;;;;;;28.04;31.64;100034.53;4410500;32;32882;-77
2022/07/08 11:13:14;;;;;;;3.97;2.12;;;;;;;27.72;31.16;100044.84;4398946;32;32522;-78
2022/07/08 11:16:32;;;;;;;13.40;3.20;;;;;;;27.84;31.34;100042.31;4410720;32;33723;-77
2022/07/08 11:19:41;;;;;;;16.17;2.95;;;;;;;27.65;31.09;100041.59;4410889;32;34081;-79
2022/07/08 11:22:38;;;;;;;5.75;2.20;;;;;;;27.54;31.02;100049.41;4411016;32;35476;-79
2022/07/08 11:25:34;;;;;;;6.85;1.90;;;;;;;27.58;31.54;100049.63;4399899;32;32457;-79
2022/07/08 11:28:38;;;;;;;4.12;1.90;;;;;;;27.62;31.40;100045.06;4410514;32;33257;-79
2022/07/08 11:31:47;;;;;;;4.53;1.90;;;;;;;27.61;30.92;100051.84;4426130;32;33871;-79
2022/07/08 11:34:39;;;;;;;3.83;1.77;;;;;;;27.61;31.05;100054.66;4418910;32;33712;-78
2022/07/08 11:37:36;;;;;;;3.00;1.80;;;;;;;27.56;31.19;100052.75;4405139;32;34915;-79
2022/07/08 11:40:26;;;;;;;6.47;2.10;;;;;;;27.40;30.67;100053.34;4408767;32;32777;-79
2022/07/08 11:43:38;;;;;;;5.95;1.87;;;;;;;27.29;29.93;100049.94;4418517;32;32847;-79
2022/07/08 11:46:44;;;;;;;3.25;2.00;;;;;;;27.31;30.42;100049.59;4413277;32;34699;-79
2022/07/08 11:49:12;;;;;;;4.55;2.10;;;;;;;27.37;29.88;100053.97;4420015;32;32982;-78
2022/07/08 11:51:51;;;;;;;4.57;2.20;;;;;;;27.39;30.71;100046.87;4410388;32;32708;-79
2022/07/08 11:54:21;;;;;;;4.68;1.80;;;;;;;27.35;31.45;100057.09;4409038;32;34419;-79
2022/07/08 11:56:57;;;;;;;7.72;2.12;;;;;;;27.23;31.41;100049.19;4412231;32;34589;-78
2022/07/08 11:59:26;;;;;;;5.45;2.15;;;;;;;27.34;31.20;100055.44;4412009;32;33640;-78
2022/07/08 12:02:00;;;;;;;4.72;2.12;;;;;;;27.43;31.40;100052.72;4438958;32;34233;-78
2022/07/08 12:04:30;;;;;;;7.85;2.30;;;;;;;27.43;31.64;100055.56;4412658;32;33444;-79
2022/07/08 12:07:00;;;;;;;4.40;2.30;;;;;;;27.56;31.47;100049.09;4400848;32;33609;-79
2022/07/08 12:09:29;;;;;;;5.85;1.90;;;;;;;27.60;31.83;100043.69;4438227;32;33983;-80
2022/07/08 12:11:58;;;;;;;5.60;2.20;;;;;;;27.67;31.56;100042.12;4416989;32;32946;-79